Terminal Aerodrome Forecast
Issued by NWS

Home | Current Version | Previous Version | Text Only | Print | Product List | Glossary On
Versions: 1 2 3 4 5 6 7 8 9 10 11 12 13 14 15 16
000
FTUS44 KLZK 241720
TAFPBF
TAF
KPBF 241720Z 2418/2518 18014G24KT P6SM VCSH SCT025 BKN050
      TEMPO 2418/2422 BKN025
     FM242300 17012G24KT P6SM VCTS BKN035CB OVC050
      TEMPO 2423/2503 4SM TSRA BR OVC025CB
     FM250300 17012G22KT 4SM -TSRA BR BKN025CB
      TEMPO 2503/2507 VRB15G35KT 1SM +TSRA BR OVC015CB
     FM250700 19010G20KT P6SM VCTS SCT020CB OVC050 PROB30 2507/2513
      5SM TSRA BR BKN025CB
     FM251400 22012G18KT P6SM BKN050 OVC120=

USA.gov is the U.S. government's official web portal to all federal, state and local government web resources and services.